sensor_id;sensor_type;location;lat;lon;timestamp;P1;durP1;ratioP1;P2;durP2;ratioP2
23346;SDS011;36852;45.466;11.066;2023-02-28T00:00:09;8.18;;;5.75;;
23346;SDS011;36852;45.466;11.066;2023-02-28T00:02:40;7.97;;;5.72;;
23346;SDS011;36852;45.466;11.066;2023-02-28T00:05:10;8.28;;;5.47;;
23346;SDS011;36852;45.466;11.066;2023-02-28T00:07:40;7.28;;;4.95;;
23346;SDS011;36852;45.466;11.066;2023-02-28T00:10:11;7.83;;;4.80;;
23346;SDS011;36852;45.466;11.066;2023-02-28T00:12:46;7.20;;;5.62;;
23346;SDS011;36852;45.466;11.066;2023-02-28T00:15:14;7.15;;;5.20;;
23346;SDS011;36852;45.466;11.066;2023-02-28T00:17:43;7.97;;;5.15;;
23346;SDS011;36852;45.466;11.066;2023-02-28T00:20:11;7.53;;;5.70;;
23346;SDS011;36852;45.466;11.066;2023-02-28T00:22:41;8.80;;;6.67;;
23346;SDS011;36852;45.466;11.066;2023-02-28T00:25:12;8.80;;;5.28;;
23346;SDS011;36852;45.466;11.066;2023-02-28T00:30:25;8.58;;;5.53;;
23346;SDS011;36852;45.466;11.066;2023-02-28T00:32:54;8.63;;;5.40;;
23346;SDS011;36852;45.466;11.066;2023-02-28T00:35:21;8.95;;;5.53;;
23346;SDS011;36852;45.466;11.066;2023-02-28T00:37:49;6.22;;;4.90;;
23346;SDS011;36852;45.466;11.066;2023-02-28T00:40:17;7.03;;;5.42;;
23346;SDS011;36852;45.466;11.066;2023-02-28T00:42:45;6.97;;;5.03;;
23346;SDS011;36852;45.466;11.066;2023-02-28T00:45:13;8.43;;;5.47;;
23346;SDS011;36852;45.466;11.066;2023-02-28T00:47:41;9.35;;;5.30;;
23346;SDS011;36852;45.466;11.066;2023-02-28T00:50:10;8.93;;;5.55;;
23346;SDS011;36852;45.466;11.066;2023-02-28T00:52:39;7.42;;;5.47;;
23346;SDS011;36852;45.466;11.066;2023-02-28T00:55:07;7.33;;;4.55;;
23346;SDS011;36852;45.466;11.066;2023-02-28T00:57:35;7.45;;;4.97;;
23346;SDS011;36852;45.466;11.066;2023-02-28T01:00:03;7.47;;;5.28;;
23346;SDS011;36852;45.466;11.066;2023-02-28T01:02:32;8.50;;;4.92;;
23346;SDS011;36852;45.466;11.066;2023-02-28T01:05:01;9.25;;;5.65;;
23346;SDS011;36852;45.466;11.066;2023-02-28T01:07:29;6.17;;;5.08;;
23346;SDS011;36852;45.466;11.066;2023-02-28T01:09:57;7.87;;;5.40;;
23346;SDS011;36852;45.466;11.066;2023-02-28T01:15:10;6.90;;;5.00;;
23346;SDS011;36852;45.466;11.066;2023-02-28T01:17:38;7.47;;;5.72;;
23346;SDS011;36852;45.466;11.066;2023-02-28T01:20:07;7.53;;;5.47;;
23346;SDS011;36852;45.466;11.066;2023-02-28T01:22:36;7.03;;;5.58;;
23346;SDS011;36852;45.466;11.066;2023-02-28T01:25:04;9.38;;;5.72;;
23346;SDS011;36852;45.466;11.066;2023-02-28T01:30:13;8.00;;;5.50;;
23346;SDS011;36852;45.466;11.066;2023-02-28T01:32:43;7.85;;;5.20;;
23346;SDS011;36852;45.466;11.066;2023-02-28T01:35:11;8.25;;;5.47;;
23346;SDS011;36852;45.466;11.066;2023-02-28T01:37:38;8.18;;;5.35;;
23346;SDS011;36852;45.466;11.066;2023-02-28T01:40:08;7.62;;;5.47;;
23346;SDS011;36852;45.466;11.066;2023-02-28T01:42:36;7.70;;;5.20;;
23346;SDS011;36852;45.466;11.066;2023-02-28T01:47:58;28.25;;;16.30;;
23346;SDS011;36852;45.466;11.066;2023-02-28T01:50:29;9.25;;;6.62;;
23346;SDS011;36852;45.466;11.066;2023-02-28T01:53:00;9.23;;;5.85;;
23346;SDS011;36852;45.466;11.066;2023-02-28T01:55:30;8.80;;;5.30;;
23346;SDS011;36852;45.466;11.066;2023-02-28T01:58:00;7.15;;;5.45;;
23346;SDS011;36852;45.466;11.066;2023-02-28T02:00:32;6.58;;;4.72;;
23346;SDS011;36852;45.466;11.066;2023-02-28T02:03:02;7.08;;;5.60;;
23346;SDS011;36852;45.466;11.066;2023-02-28T02:05:35;8.10;;;5.20;;
23346;SDS011;36852;45.466;11.066;2023-02-28T02:08:09;8.28;;;5.00;;
23346;SDS011;36852;45.466;11.066;2023-02-28T02:10:44;7.95;;;5.25;;
23346;SDS011;36852;45.466;11.066;2023-02-28T02:13:19;8.18;;;5.37;;
23346;SDS011;36852;45.466;11.066;2023-02-28T02:18:52;7.17;;;5.33;;
23346;SDS011;36852;45.466;11.066;2023-02-28T02:24:54;8.00;;;5.60;;
23346;SDS011;36852;45.466;11.066;2023-02-28T02:26:52;7.30;;;5.35;;
23346;SDS011;36852;45.466;11.066;2023-02-28T02:34:50;7.40;;;5.17;;
23346;SDS011;36852;45.466;11.066;2023-02-28T02:37:37;6.33;;;5.03;;
23346;SDS011;36852;45.466;11.066;2023-02-28T02:40:24;7.45;;;5.53;;
23346;SDS011;36852;45.466;11.066;2023-02-28T02:46:00;8.25;;;5.37;;
23346;SDS011;36852;45.466;11.066;2023-02-28T02:48:37;8.40;;;5.35;;
23346;SDS011;36852;45.466;11.066;2023-02-28T02:51:10;5.75;;;5.08;;
23346;SDS011;36852;45.466;11.066;2023-02-28T02:53:47;6.75;;;4.80;;
23346;SDS011;36852;45.466;11.066;2023-02-28T02:56:14;7.10;;;5.10;;
23346;SDS011;36852;45.466;11.066;2023-02-28T02:58:44;7.05;;;5.30;;
23346;SDS011;36852;45.466;11.066;2023-02-28T03:01:20;8.53;;;5.55;;
23346;SDS011;36852;45.466;11.066;2023-02-28T03:03:57;7.42;;;5.20;;
23346;SDS011;36852;45.466;11.066;2023-02-28T03:06:27;7.70;;;5.35;;
23346;SDS011;36852;45.466;11.066;2023-02-28T03:08:55;8.15;;;5.37;;
23346;SDS011;36852;45.466;11.066;2023-02-28T03:11:23;7.00;;;4.80;;
23346;SDS011;36852;45.466;11.066;2023-02-28T03:13:57;6.55;;;4.92;;
23346;SDS011;36852;45.466;11.066;2023-02-28T03:19:43;8.18;;;4.90;;
23346;SDS011;36852;45.466;11.066;2023-02-28T03:22:14;7.37;;;5.30;;
23346;SDS011;36852;45.466;11.066;2023-02-28T03:27:41;7.03;;;5.08;;
23346;SDS011;36852;45.466;11.066;2023-02-28T03:30:18;7.15;;;5.17;;
23346;SDS011;36852;45.466;11.066;2023-02-28T03:35:32;6.47;;;5.05;;
23346;SDS011;36852;45.466;11.066;2023-02-28T03:46:12;10.15;;;5.05;;
23346;SDS011;36852;45.466;11.066;2023-02-28T03:48:44;7.60;;;5.15;;
23346;SDS011;36852;45.466;11.066;2023-02-28T03:51:16;7.65;;;5.25;;
23346;SDS011;36852;45.466;11.066;2023-02-28T03:53:50;6.33;;;5.05;;
23346;SDS011;36852;45.466;11.066;2023-02-28T03:56:39;7.25;;;4.95;;
23346;SDS011;36852;45.466;11.066;2023-02-28T03:59:13;7.12;;;5.22;;
23346;SDS011;36852;45.466;11.066;2023-02-28T04:04:16;7.53;;;4.92;;
23346;SDS011;36852;45.466;11.066;2023-02-28T04:06:45;6.80;;;5.15;;
23346;SDS011;36852;45.466;11.066;2023-02-28T04:09:13;8.40;;;5.22;;
23346;SDS011;36852;45.466;11.066;2023-02-28T04:11:42;7.83;;;6.15;;
23346;SDS011;36852;45.466;11.066;2023-02-28T04:14:12;8.63;;;5.40;;
23346;SDS011;36852;45.466;11.066;2023-02-28T04:16:41;9.45;;;5.85;;
23346;SDS011;36852;45.466;11.066;2023-02-28T04:19:10;7.92;;;5.35;;
23346;SDS011;36852;45.466;11.066;2023-02-28T04:21:43;7.40;;;5.20;;
23346;SDS011;36852;45.466;11.066;2023-02-28T04:24:16;8.53;;;5.90;;
23346;SDS011;36852;45.466;11.066;2023-02-28T04:26:46;7.92;;;5.70;;
23346;SDS011;36852;45.466;11.066;2023-02-28T04:29:21;9.85;;;6.40;;
23346;SDS011;36852;45.466;11.066;2023-02-28T04:31:54;8.33;;;5.65;;
23346;SDS011;36852;45.466;11.066;2023-02-28T04:37:00;8.85;;;5.83;;
23346;SDS011;36852;45.466;11.066;2023-02-28T04:39:30;7.62;;;5.42;;
23346;SDS011;36852;45.466;11.066;2023-02-28T04:42:00;9.80;;;5.47;;
23346;SDS011;36852;45.466;11.066;2023-02-28T04:44:28;8.90;;;5.90;;
23346;SDS011;36852;45.466;11.066;2023-02-28T04:46:55;9.33;;;6.33;;
23346;SDS011;36852;45.466;11.066;2023-02-28T04:49:24;8.95;;;5.62;;
23346;SDS011;36852;45.466;11.066;2023-02-28T04:51:52;8.30;;;5.92;;
23346;SDS011;36852;45.466;11.066;2023-02-28T04:54:21;7.30;;;5.12;;
23346;SDS011;36852;45.466;11.066;2023-02-28T04:59:23;8.30;;;5.53;;
23346;SDS011;36852;45.466;11.066;2023-02-28T05:01:51;7.42;;;5.78;;
23346;SDS011;36852;45.466;11.066;2023-02-28T05:04:19;7.08;;;4.87;;
23346;SDS011;36852;45.466;11.066;2023-02-28T05:06:47;6.12;;;5.08;;
23346;SDS011;36852;45.466;11.066;2023-02-28T05:09:16;9.10;;;6.28;;
23346;SDS011;36852;45.466;11.066;2023-02-28T05:11:43;8.88;;;6.05;;
23346;SDS011;36852;45.466;11.066;2023-02-28T05:16:47;8.68;;;5.72;;
23346;SDS011;36852;45.466;11.066;2023-02-28T05:19:16;8.10;;;5.78;;
23346;SDS011;36852;45.466;11.066;2023-02-28T05:21:49;9.50;;;5.40;;
23346;SDS011;36852;45.466;11.066;2023-02-28T05:24:19;8.95;;;5.53;;
23346;SDS011;36852;45.466;11.066;2023-02-28T05:26:51;9.33;;;5.72;;
23346;SDS011;36852;45.466;11.066;2023-02-28T05:29:21;9.33;;;6.50;;
23346;SDS011;36852;45.466;11.066;2023-02-28T05:31:49;8.28;;;5.95;;
23346;SDS011;36852;45.466;11.066;2023-02-28T05:34:17;9.10;;;5.92;;
23346;SDS011;36852;45.466;11.066;2023-02-28T05:36:45;7.30;;;5.50;;
23346;SDS011;36852;45.466;11.066;2023-02-28T05:39:13;6.87;;;5.45;;
23346;SDS011;36852;45.466;11.066;2023-02-28T05:41:42;7.03;;;5.67;;
23346;SDS011;36852;45.466;11.066;2023-02-28T05:44:11;9.65;;;5.62;;
23346;SDS011;36852;45.466;11.066;2023-02-28T05:46:39;8.55;;;6.00;;
23346;SDS011;36852;45.466;11.066;2023-02-28T05:49:08;9.13;;;5.58;;
23346;SDS011;36852;45.466;11.066;2023-02-28T05:51:35;9.78;;;5.62;;
23346;SDS011;36852;45.466;11.066;2023-02-28T05:54:06;8.18;;;5.95;;
23346;SDS011;36852;45.466;11.066;2023-02-28T05:56:34;9.20;;;5.50;;
23346;SDS011;36852;45.466;11.066;2023-02-28T05:59:05;10.95;;;6.42;;
23346;SDS011;36852;45.466;11.066;2023-02-28T06:01:36;9.93;;;5.70;;
23346;SDS011;36852;45.466;11.066;2023-02-28T06:04:07;11.05;;;6.53;;
23346;SDS011;36852;45.466;11.066;2023-02-28T06:06:38;10.88;;;6.58;;
23346;SDS011;36852;45.466;11.066;2023-02-28T06:09:06;7.62;;;5.95;;
23346;SDS011;36852;45.466;11.066;2023-02-28T06:11:34;9.30;;;6.00;;
23346;SDS011;36852;45.466;11.066;2023-02-28T06:14:03;8.93;;;5.90;;
23346;SDS011;36852;45.466;11.066;2023-02-28T06:16:32;10.88;;;6.28;;
23346;SDS011;36852;45.466;11.066;2023-02-28T06:19:02;8.70;;;6.67;;
23346;SDS011;36852;45.466;11.066;2023-02-28T06:21:31;9.03;;;6.45;;
23346;SDS011;36852;45.466;11.066;2023-02-28T06:23:59;10.70;;;6.03;;
23346;SDS011;36852;45.466;11.066;2023-02-28T06:26:28;8.50;;;6.20;;
23346;SDS011;36852;45.466;11.066;2023-02-28T06:28:57;11.10;;;6.47;;
23346;SDS011;36852;45.466;11.066;2023-02-28T06:31:26;9.20;;;6.17;;
23346;SDS011;36852;45.466;11.066;2023-02-28T06:33:57;7.55;;;5.65;;
23346;SDS011;36852;45.466;11.066;2023-02-28T06:36:25;8.70;;;5.53;;
23346;SDS011;36852;45.466;11.066;2023-02-28T06:38:53;14.25;;;5.90;;
23346;SDS011;36852;45.466;11.066;2023-02-28T06:41:23;9.13;;;5.80;;
23346;SDS011;36852;45.466;11.066;2023-02-28T06:43:53;11.45;;;6.30;;
23346;SDS011;36852;45.466;11.066;2023-02-28T06:46:21;11.20;;;6.80;;
23346;SDS011;36852;45.466;11.066;2023-02-28T06:48:50;43.75;;;24.05;;
23346;SDS011;36852;45.466;11.066;2023-02-28T06:51:19;13.40;;;7.97;;
23346;SDS011;36852;45.466;11.066;2023-02-28T06:53:49;9.08;;;6.35;;
23346;SDS011;36852;45.466;11.066;2023-02-28T06:59:04;10.75;;;6.80;;
23346;SDS011;36852;45.466;11.066;2023-02-28T07:01:33;10.70;;;5.87;;
23346;SDS011;36852;45.466;11.066;2023-02-28T07:04:01;11.03;;;6.08;;
23346;SDS011;36852;45.466;11.066;2023-02-28T07:06:32;10.32;;;6.33;;
23346;SDS011;36852;45.466;11.066;2023-02-28T07:09:01;10.85;;;6.35;;
23346;SDS011;36852;45.466;11.066;2023-02-28T07:11:30;8.83;;;5.95;;
23346;SDS011;36852;45.466;11.066;2023-02-28T07:13:59;10.35;;;6.53;;
23346;SDS011;36852;45.466;11.066;2023-02-28T07:16:28;12.98;;;7.22;;
23346;SDS011;36852;45.466;11.066;2023-02-28T07:18:56;12.45;;;6.75;;
23346;SDS011;36852;45.466;11.066;2023-02-28T07:21:25;12.63;;;6.85;;
23346;SDS011;36852;45.466;11.066;2023-02-28T07:23:55;9.65;;;6.58;;
23346;SDS011;36852;45.466;11.066;2023-02-28T07:26:24;11.05;;;6.30;;
23346;SDS011;36852;45.466;11.066;2023-02-28T07:28:52;11.53;;;6.70;;
23346;SDS011;36852;45.466;11.066;2023-02-28T07:31:20;11.48;;;7.12;;
23346;SDS011;36852;45.466;11.066;2023-02-28T07:33:48;10.48;;;7.25;;
23346;SDS011;36852;45.466;11.066;2023-02-28T07:36:16;8.63;;;6.17;;
23346;SDS011;36852;45.466;11.066;2023-02-28T07:38:46;9.73;;;5.83;;
23346;SDS011;36852;45.466;11.066;2023-02-28T07:41:20;10.13;;;6.53;;
23346;SDS011;36852;45.466;11.066;2023-02-28T07:43:53;10.65;;;6.83;;
23346;SDS011;36852;45.466;11.066;2023-02-28T07:46:22;13.22;;;9.50;;
23346;SDS011;36852;45.466;11.066;2023-02-28T07:48:50;25.32;;;14.15;;
23346;SDS011;36852;45.466;11.066;2023-02-28T07:54:00;13.85;;;7.67;;
23346;SDS011;36852;45.466;11.066;2023-02-28T07:56:31;11.22;;;6.97;;
23346;SDS011;36852;45.466;11.066;2023-02-28T07:58:59;11.03;;;7.12;;
23346;SDS011;36852;45.466;11.066;2023-02-28T08:01:28;11.80;;;6.47;;
23346;SDS011;36852;45.466;11.066;2023-02-28T08:06:45;12.00;;;5.75;;
23346;SDS011;36852;45.466;11.066;2023-02-28T08:09:18;9.65;;;6.08;;
23346;SDS011;36852;45.466;11.066;2023-02-28T08:11:46;9.75;;;5.67;;
23346;SDS011;36852;45.466;11.066;2023-02-28T08:14:14;12.58;;;6.78;;
23346;SDS011;36852;45.466;11.066;2023-02-28T08:16:42;9.30;;;6.30;;
23346;SDS011;36852;45.466;11.066;2023-02-28T08:19:11;10.85;;;6.47;;
23346;SDS011;36852;45.466;11.066;2023-02-28T08:21:39;9.25;;;6.25;;
23346;SDS011;36852;45.466;11.066;2023-02-28T08:24:15;9.73;;;5.78;;
23346;SDS011;36852;45.466;11.066;2023-02-28T08:26:44;15.83;;;6.67;;
23346;SDS011;36852;45.466;11.066;2023-02-28T08:29:12;12.53;;;6.53;;
23346;SDS011;36852;45.466;11.066;2023-02-28T08:31:41;10.20;;;7.03;;
23346;SDS011;36852;45.466;11.066;2023-02-28T08:34:12;10.63;;;6.85;;
23346;SDS011;36852;45.466;11.066;2023-02-28T08:36:41;13.65;;;7.42;;
23346;SDS011;36852;45.466;11.066;2023-02-28T08:39:11;12.73;;;7.50;;
23346;SDS011;36852;45.466;11.066;2023-02-28T08:41:41;11.80;;;6.62;;
23346;SDS011;36852;45.466;11.066;2023-02-28T08:44:10;10.13;;;6.47;;
23346;SDS011;36852;45.466;11.066;2023-02-28T08:46:39;9.48;;;6.70;;
23346;SDS011;36852;45.466;11.066;2023-02-28T08:49:09;8.75;;;5.80;;
23346;SDS011;36852;45.466;11.066;2023-02-28T08:54:15;13.53;;;8.60;;
23346;SDS011;36852;45.466;11.066;2023-02-28T08:56:45;12.58;;;8.03;;
23346;SDS011;36852;45.466;11.066;2023-02-28T08:59:17;13.43;;;7.55;;
23346;SDS011;36852;45.466;11.066;2023-02-28T09:01:45;10.63;;;5.97;;
23346;SDS011;36852;45.466;11.066;2023-02-28T09:04:13;8.90;;;6.75;;
23346;SDS011;36852;45.466;11.066;2023-02-28T09:06:43;11.15;;;6.28;;
23346;SDS011;36852;45.466;11.066;2023-02-28T09:09:14;8.28;;;5.75;;
23346;SDS011;36852;45.466;11.066;2023-02-28T09:11:43;9.60;;;5.78;;
23346;SDS011;36852;45.466;11.066;2023-02-28T09:14:11;8.68;;;5.35;;
23346;SDS011;36852;45.466;11.066;2023-02-28T09:16:39;8.85;;;6.12;;
23346;SDS011;36852;45.466;11.066;2023-02-28T09:19:10;8.38;;;5.72;;
23346;SDS011;36852;45.466;11.066;2023-02-28T09:21:40;9.13;;;6.00;;
23346;SDS011;36852;45.466;11.066;2023-02-28T09:24:09;8.38;;;5.60;;
23346;SDS011;36852;45.466;11.066;2023-02-28T09:26:40;8.30;;;5.87;;
23346;SDS011;36852;45.466;11.066;2023-02-28T09:29:09;8.40;;;5.15;;
23346;SDS011;36852;45.466;11.066;2023-02-28T09:31:38;8.23;;;5.60;;
23346;SDS011;36852;45.466;11.066;2023-02-28T09:34:06;6.90;;;5.17;;
23346;SDS011;36852;45.466;11.066;2023-02-28T09:36:36;10.28;;;5.50;;
23346;SDS011;36852;45.466;11.066;2023-02-28T09:39:08;10.75;;;5.65;;
23346;SDS011;36852;45.466;11.066;2023-02-28T09:41:37;8.98;;;5.92;;
23346;SDS011;36852;45.466;11.066;2023-02-28T09:44:22;9.83;;;5.60;;
23346;SDS011;36852;45.466;11.066;2023-02-28T09:46:47;6.83;;;5.42;;
23346;SDS011;36852;45.466;11.066;2023-02-28T09:49:18;8.10;;;6.05;;
23346;SDS011;36852;45.466;11.066;2023-02-28T09:51:51;8.30;;;5.50;;
23346;SDS011;36852;45.466;11.066;2023-02-28T09:54:27;7.97;;;5.55;;
23346;SDS011;36852;45.466;11.066;2023-02-28T10:05:09;7.37;;;5.90;;
23346;SDS011;36852;45.466;11.066;2023-02-28T10:07:53;7.83;;;6.03;;
23346;SDS011;36852;45.466;11.066;2023-02-28T10:10:36;14.10;;;6.97;;
23346;SDS011;36852;45.466;11.066;2023-02-28T10:13:14;8.55;;;5.40;;
23346;SDS011;36852;45.466;11.066;2023-02-28T10:15:48;9.65;;;6.20;;
23346;SDS011;36852;45.466;11.066;2023-02-28T10:18:21;6.83;;;5.25;;
23346;SDS011;36852;45.466;11.066;2023-02-28T10:23:34;9.63;;;6.33;;
23346;SDS011;36852;45.466;11.066;2023-02-28T10:28:40;10.15;;;7.00;;
23346;SDS011;36852;45.466;11.066;2023-02-28T10:31:11;9.48;;;6.33;;
23346;SDS011;36852;45.466;11.066;2023-02-28T10:33:46;10.00;;;6.53;;
23346;SDS011;36852;45.466;11.066;2023-02-28T10:36:17;10.18;;;6.75;;
23346;SDS011;36852;45.466;11.066;2023-02-28T10:41:28;14.23;;;6.60;;
23346;SDS011;36852;45.466;11.066;2023-02-28T10:44:12;10.03;;;6.40;;
23346;SDS011;36852;45.466;11.066;2023-02-28T10:46:38;10.32;;;6.17;;
23346;SDS011;36852;45.466;11.066;2023-02-28T10:49:12;9.83;;;6.53;;
23346;SDS011;36852;45.466;11.066;2023-02-28T10:51:57;10.08;;;7.47;;
23346;SDS011;36852;45.466;11.066;2023-02-28T10:54:32;10.20;;;6.58;;
23346;SDS011;36852;45.466;11.066;2023-02-28T10:57:21;9.65;;;6.95;;
23346;SDS011;36852;45.466;11.066;2023-02-28T10:59:36;10.85;;;7.87;;
23346;SDS011;36852;45.466;11.066;2023-02-28T11:05:13;9.95;;;6.87;;
23346;SDS011;36852;45.466;11.066;2023-02-28T11:07:51;10.48;;;7.17;;
23346;SDS011;36852;45.466;11.066;2023-02-28T11:10:23;9.35;;;6.30;;
23346;SDS011;36852;45.466;11.066;2023-02-28T11:12:58;10.32;;;7.12;;
23346;SDS011;36852;45.466;11.066;2023-02-28T11:15:30;12.07;;;6.70;;
23346;SDS011;36852;45.466;11.066;2023-02-28T11:17:59;15.93;;;6.55;;
23346;SDS011;36852;45.466;11.066;2023-02-28T11:20:40;10.70;;;7.58;;
23346;SDS011;36852;45.466;11.066;2023-02-28T11:23:11;9.33;;;6.33;;
23346;SDS011;36852;45.466;11.066;2023-02-28T11:25:40;8.65;;;6.30;;
23346;SDS011;36852;45.466;11.066;2023-02-28T11:28:26;10.35;;;6.75;;
23346;SDS011;36852;45.466;11.066;2023-02-28T11:33:51;16.93;;;7.42;;
23346;SDS011;36852;45.466;11.066;2023-02-28T11:36:21;10.28;;;6.90;;
23346;SDS011;36852;45.466;11.066;2023-02-28T11:38:55;12.43;;;6.40;;
23346;SDS011;36852;45.466;11.066;2023-02-28T11:47:11;10.60;;;7.55;;
23346;SDS011;36852;45.466;11.066;2023-02-28T11:52:50;11.97;;;8.58;;
23346;SDS011;36852;45.466;11.066;2023-02-28T11:55:26;14.38;;;7.28;;
23346;SDS011;36852;45.466;11.066;2023-02-28T12:05:45;11.57;;;8.03;;
23346;SDS011;36852;45.466;11.066;2023-02-28T12:11:09;8.58;;;6.72;;
23346;SDS011;36852;45.466;11.066;2023-02-28T12:16:20;9.40;;;6.95;;
23346;SDS011;36852;45.466;11.066;2023-02-28T12:24:44;12.75;;;7.50;;
23346;SDS011;36852;45.466;11.066;2023-02-28T12:33:50;13.65;;;7.75;;
23346;SDS011;36852;45.466;11.066;2023-02-28T12:38:18;10.68;;;6.78;;
23346;SDS011;36852;45.466;11.066;2023-02-28T12:40:51;10.08;;;7.85;;
23346;SDS011;36852;45.466;11.066;2023-02-28T12:48:37;10.15;;;7.20;;
23346;SDS011;36852;45.466;11.066;2023-02-28T12:59:19;12.40;;;8.03;;
23346;SDS011;36852;45.466;11.066;2023-02-28T13:02:00;15.55;;;8.50;;
23346;SDS011;36852;45.466;11.066;2023-02-28T13:10:04;13.50;;;8.48;;
23346;SDS011;36852;45.466;11.066;2023-02-28T13:12:35;11.05;;;7.58;;
23346;SDS011;36852;45.466;11.066;2023-02-28T13:17:49;10.75;;;8.00;;
23346;SDS011;36852;45.466;11.066;2023-02-28T13:20:20;10.48;;;7.92;;
23346;SDS011;36852;45.466;11.066;2023-02-28T13:22:53;13.35;;;8.33;;
23346;SDS011;36852;45.466;11.066;2023-02-28T13:27:54;12.13;;;8.25;;
23346;SDS011;36852;45.466;11.066;2023-02-28T13:33:33;11.90;;;8.23;;
23346;SDS011;36852;45.466;11.066;2023-02-28T13:38:40;12.25;;;8.75;;
23346;SDS011;36852;45.466;11.066;2023-02-28T13:44:07;9.50;;;8.00;;
23346;SDS011;36852;45.466;11.066;2023-02-28T14:11:55;10.65;;;7.72;;
23346;SDS011;36852;45.466;11.066;2023-02-28T14:17:14;10.08;;;7.90;;
23346;SDS011;36852;45.466;11.066;2023-02-28T14:19:44;10.93;;;7.50;;
23346;SDS011;36852;45.466;11.066;2023-02-28T14:36:16;11.88;;;7.83;;
23346;SDS011;36852;45.466;11.066;2023-02-28T14:41:43;11.05;;;7.83;;
23346;SDS011;36852;45.466;11.066;2023-02-28T14:44:13;12.28;;;8.03;;
23346;SDS011;36852;45.466;11.066;2023-02-28T14:46:58;10.65;;;8.80;;
23346;SDS011;36852;45.466;11.066;2023-02-28T14:49:31;11.60;;;8.55;;
23346;SDS011;36852;45.466;11.066;2023-02-28T14:54:43;11.95;;;8.25;;
23346;SDS011;36852;45.466;11.066;2023-02-28T14:57:26;10.20;;;8.08;;
23346;SDS011;36852;45.466;11.066;2023-02-28T15:02:38;11.97;;;8.33;;
23346;SDS011;36852;45.466;11.066;2023-02-28T15:07:45;9.28;;;7.83;;
23346;SDS011;36852;45.466;11.066;2023-02-28T15:15:45;10.60;;;8.53;;
23346;SDS011;36852;45.466;11.066;2023-02-28T15:24:04;9.50;;;7.70;;
23346;SDS011;36852;45.466;11.066;2023-02-28T15:26:57;14.63;;;8.43;;
23346;SDS011;36852;45.466;11.066;2023-02-28T15:29:27;10.95;;;7.97;;
23346;SDS011;36852;45.466;11.066;2023-02-28T15:32:02;11.45;;;8.43;;
23346;SDS011;36852;45.466;11.066;2023-02-28T15:43:04;9.93;;;8.45;;
23346;SDS011;36852;45.466;11.066;2023-02-28T15:48:25;11.48;;;8.60;;
23346;SDS011;36852;45.466;11.066;2023-02-28T15:51:08;11.25;;;7.58;;
23346;SDS011;36852;45.466;11.066;2023-02-28T15:56:22;10.20;;;8.55;;
23346;SDS011;36852;45.466;11.066;2023-02-28T15:58:59;11.43;;;8.58;;
23346;SDS011;36852;45.466;11.066;2023-02-28T16:01:29;8.70;;;7.80;;
23346;SDS011;36852;45.466;11.066;2023-02-28T16:04:01;16.12;;;8.35;;
23346;SDS011;36852;45.466;11.066;2023-02-28T16:09:13;10.28;;;8.70;;
23346;SDS011;36852;45.466;11.066;2023-02-28T16:11:44;11.75;;;7.83;;
23346;SDS011;36852;45.466;11.066;2023-02-28T16:14:16;10.13;;;8.20;;
23346;SDS011;36852;45.466;11.066;2023-02-28T16:16:51;11.63;;;8.03;;
23346;SDS011;36852;45.466;11.066;2023-02-28T16:19:21;10.82;;;8.08;;
23346;SDS011;36852;45.466;11.066;2023-02-28T16:21:50;12.80;;;8.50;;
23346;SDS011;36852;45.466;11.066;2023-02-28T16:24:19;18.92;;;8.95;;
23346;SDS011;36852;45.466;11.066;2023-02-28T16:26:48;11.80;;;8.45;;
23346;SDS011;36852;45.466;11.066;2023-02-28T16:29:40;12.43;;;8.08;;
23346;SDS011;36852;45.466;11.066;2023-02-28T16:31:57;13.88;;;8.40;;
23346;SDS011;36852;45.466;11.066;2023-02-28T16:34:27;18.55;;;14.05;;
23346;SDS011;36852;45.466;11.066;2023-02-28T16:36:56;13.05;;;9.78;;
23346;SDS011;36852;45.466;11.066;2023-02-28T16:39:24;27.95;;;19.85;;
23346;SDS011;36852;45.466;11.066;2023-02-28T16:41:52;13.65;;;10.43;;
23346;SDS011;36852;45.466;11.066;2023-02-28T16:44:28;14.43;;;9.05;;
23346;SDS011;36852;45.466;11.066;2023-02-28T16:47:01;12.82;;;8.88;;
23346;SDS011;36852;45.466;11.066;2023-02-28T16:49:30;13.83;;;8.70;;
23346;SDS011;36852;45.466;11.066;2023-02-28T16:51:59;13.18;;;9.10;;
23346;SDS011;36852;45.466;11.066;2023-02-28T16:54:27;12.28;;;9.00;;
23346;SDS011;36852;45.466;11.066;2023-02-28T16:56:55;12.28;;;8.88;;
23346;SDS011;36852;45.466;11.066;2023-02-28T16:59:23;16.90;;;10.60;;
23346;SDS011;36852;45.466;11.066;2023-02-28T17:01:54;16.00;;;10.60;;
23346;SDS011;36852;45.466;11.066;2023-02-28T17:04:26;19.02;;;10.23;;
23346;SDS011;36852;45.466;11.066;2023-02-28T17:06:54;16.40;;;9.88;;
23346;SDS011;36852;45.466;11.066;2023-02-28T17:09:22;12.82;;;9.25;;
23346;SDS011;36852;45.466;11.066;2023-02-28T17:11:54;16.52;;;10.30;;
23346;SDS011;36852;45.466;11.066;2023-02-28T17:14:26;15.53;;;9.85;;
23346;SDS011;36852;45.466;11.066;2023-02-28T17:16:55;14.50;;;9.88;;
23346;SDS011;36852;45.466;11.066;2023-02-28T17:19:25;14.50;;;9.43;;
23346;SDS011;36852;45.466;11.066;2023-02-28T17:21:53;32.93;;;17.87;;
23346;SDS011;36852;45.466;11.066;2023-02-28T17:27:02;24.40;;;15.13;;
23346;SDS011;36852;45.466;11.066;2023-02-28T17:29:31;20.88;;;13.55;;
23346;SDS011;36852;45.466;11.066;2023-02-28T17:31:59;24.52;;;14.35;;
23346;SDS011;36852;45.466;11.066;2023-02-28T17:34:28;19.82;;;13.08;;
23346;SDS011;36852;45.466;11.066;2023-02-28T17:36:57;19.73;;;14.28;;
23346;SDS011;36852;45.466;11.066;2023-02-28T17:39:30;20.85;;;14.07;;
23346;SDS011;36852;45.466;11.066;2023-02-28T17:41:57;26.93;;;17.05;;
23346;SDS011;36852;45.466;11.066;2023-02-28T17:44:26;23.32;;;15.53;;
23346;SDS011;36852;45.466;11.066;2023-02-28T17:46:54;21.00;;;14.38;;
23346;SDS011;36852;45.466;11.066;2023-02-28T17:49:23;21.90;;;12.70;;
23346;SDS011;36852;45.466;11.066;2023-02-28T17:51:51;19.37;;;11.22;;
23346;SDS011;36852;45.466;11.066;2023-02-28T17:54:19;21.20;;;12.05;;
23346;SDS011;36852;45.466;11.066;2023-02-28T17:56:47;19.07;;;12.13;;
23346;SDS011;36852;45.466;11.066;2023-02-28T17:59:16;22.17;;;14.28;;
23346;SDS011;36852;45.466;11.066;2023-02-28T18:01:44;22.73;;;15.32;;
23346;SDS011;36852;45.466;11.066;2023-02-28T18:04:12;22.55;;;14.38;;
23346;SDS011;36852;45.466;11.066;2023-02-28T18:06:41;21.73;;;13.13;;
23346;SDS011;36852;45.466;11.066;2023-02-28T18:09:14;21.95;;;12.95;;
23346;SDS011;36852;45.466;11.066;2023-02-28T18:11:44;23.65;;;13.48;;
23346;SDS011;36852;45.466;11.066;2023-02-28T18:14:19;22.87;;;15.30;;
23346;SDS011;36852;45.466;11.066;2023-02-28T18:16:50;24.77;;;15.03;;
23346;SDS011;36852;45.466;11.066;2023-02-28T18:19:19;22.22;;;13.72;;
23346;SDS011;36852;45.466;11.066;2023-02-28T18:21:49;43.98;;;23.60;;
23346;SDS011;36852;45.466;11.066;2023-02-28T18:24:20;48.98;;;28.17;;
23346;SDS011;36852;45.466;11.066;2023-02-28T18:26:51;22.25;;;13.62;;
23346;SDS011;36852;45.466;11.066;2023-02-28T18:29:20;19.62;;;12.10;;
23346;SDS011;36852;45.466;11.066;2023-02-28T18:31:51;24.98;;;13.43;;
23346;SDS011;36852;45.466;11.066;2023-02-28T18:34:21;20.27;;;12.07;;
23346;SDS011;36852;45.466;11.066;2023-02-28T18:36:51;17.62;;;11.18;;
23346;SDS011;36852;45.466;11.066;2023-02-28T18:39:20;22.52;;;12.28;;
23346;SDS011;36852;45.466;11.066;2023-02-28T18:41:48;25.70;;;12.23;;
23346;SDS011;36852;45.466;11.066;2023-02-28T18:44:16;23.50;;;12.35;;